Sunset Hills, Missouri
Current Conditions -  °F | °C
As of 2:01 AM on Sunday 26 Oct 2014 (Local Time) from KCPS Reporting Station
Haze Haze  
Wind Chill: 50°   Ceiling: Unl
Heat Index: 50°   Visibility: 1.5mi
Dew Point: 50°   Wind: 0mph
Humidity: 100%   Direction: NA
Pressure: 30.02"   Gusts: NA
Location:  38.5348°N, 90.4131°W
Report Text: KCPS 260701Z AUTO 00000KT 1 1/2SM BR CLR 10/10 A3002 RMK AO2 T01000100 $
Loading
Personal Weather Stations






























Interactive Weather Map
Tropical Storm Tracking
New forecast layout! Learn more

10-Day Weather Forecast

Advertisements
Track Severe Weather on mobile